sensor_id;sensor_type;location;lat;lon;timestamp;P1;durP1;ratioP1;P2;durP2;ratioP2
44824;SDS011;30542;47.928;2.138;2024-02-15T00:04:44;1.02;;;0.20;;
44824;SDS011;30542;47.928;2.138;2024-02-15T00:09:44;0.88;;;0.25;;
44824;SDS011;30542;47.928;2.138;2024-02-15T00:14:45;0.57;;;0.20;;
44824;SDS011;30542;47.928;2.138;2024-02-15T00:19:45;1.27;;;0.30;;
44824;SDS011;30542;47.928;2.138;2024-02-15T00:24:47;0.85;;;0.30;;
44824;SDS011;30542;47.928;2.138;2024-02-15T00:29:48;0.68;;;0.38;;
44824;SDS011;30542;47.928;2.138;2024-02-15T00:34:48;1.25;;;0.30;;
44824;SDS011;30542;47.928;2.138;2024-02-15T00:39:49;1.20;;;0.35;;
44824;SDS011;30542;47.928;2.138;2024-02-15T00:44:49;1.70;;;0.20;;
44824;SDS011;30542;47.928;2.138;2024-02-15T00:49:50;1.47;;;0.30;;
44824;SDS011;30542;47.928;2.138;2024-02-15T00:54:50;0.63;;;0.40;;
44824;SDS011;30542;47.928;2.138;2024-02-15T00:59:50;1.80;;;0.23;;
44824;SDS011;30542;47.928;2.138;2024-02-15T01:04:52;1.80;;;0.40;;
44824;SDS011;30542;47.928;2.138;2024-02-15T01:09:53;0.52;;;0.20;;
44824;SDS011;30542;47.928;2.138;2024-02-15T01:14:54;0.63;;;0.20;;
44824;SDS011;30542;47.928;2.138;2024-02-15T01:19:56;0.80;;;0.47;;
44824;SDS011;30542;47.928;2.138;2024-02-15T01:24:56;0.63;;;0.20;;
44824;SDS011;30542;47.928;2.138;2024-02-15T01:29:58;0.43;;;0.20;;
44824;SDS011;30542;47.928;2.138;2024-02-15T01:34:58;0.60;;;0.20;;
44824;SDS011;30542;47.928;2.138;2024-02-15T01:39:58;0.40;;;0.20;;
44824;SDS011;30542;47.928;2.138;2024-02-15T01:44:59;0.93;;;0.20;;
44824;SDS011;30542;47.928;2.138;2024-02-15T01:50:00;1.10;;;0.50;;
44824;SDS011;30542;47.928;2.138;2024-02-15T01:55:00;1.00;;;0.40;;
44824;SDS011;30542;47.928;2.138;2024-02-15T02:00:07;1.07;;;0.53;;
44824;SDS011;30542;47.928;2.138;2024-02-15T02:05:09;1.92;;;0.40;;
44824;SDS011;30542;47.928;2.138;2024-02-15T02:10:09;0.30;;;0.20;;
44824;SDS011;30542;47.928;2.138;2024-02-15T02:15:11;0.70;;;0.30;;
44824;SDS011;30542;47.928;2.138;2024-02-15T02:20:11;0.38;;;0.20;;
44824;SDS011;30542;47.928;2.138;2024-02-15T02:25:13;0.50;;;0.30;;
44824;SDS011;30542;47.928;2.138;2024-02-15T02:30:15;0.85;;;0.20;;
44824;SDS011;30542;47.928;2.138;2024-02-15T02:35:17;0.50;;;0.25;;
44824;SDS011;30542;47.928;2.138;2024-02-15T02:40:17;0.40;;;0.20;;
44824;SDS011;30542;47.928;2.138;2024-02-15T02:45:18;0.20;;;0.20;;
44824;SDS011;30542;47.928;2.138;2024-02-15T02:50:22;0.93;;;0.30;;
44824;SDS011;30542;47.928;2.138;2024-02-15T02:55:23;0.77;;;0.20;;
44824;SDS011;30542;47.928;2.138;2024-02-15T03:00:26;0.30;;;0.25;;
44824;SDS011;30542;47.928;2.138;2024-02-15T03:05:27;0.50;;;0.30;;
44824;SDS011;30542;47.928;2.138;2024-02-15T03:10:27;0.57;;;0.30;;
44824;SDS011;30542;47.928;2.138;2024-02-15T03:15:28;0.95;;;0.30;;
44824;SDS011;30542;47.928;2.138;2024-02-15T03:20:28;0.70;;;0.20;;
44824;SDS011;30542;47.928;2.138;2024-02-15T03:25:29;1.08;;;0.40;;
44824;SDS011;30542;47.928;2.138;2024-02-15T03:30:30;0.85;;;0.20;;
44824;SDS011;30542;47.928;2.138;2024-02-15T03:35:31;0.60;;;0.45;;
44824;SDS011;30542;47.928;2.138;2024-02-15T03:40:32;0.50;;;0.20;;
44824;SDS011;30542;47.928;2.138;2024-02-15T03:45:32;0.57;;;0.28;;
44824;SDS011;30542;47.928;2.138;2024-02-15T03:50:32;0.50;;;0.20;;
44824;SDS011;30542;47.928;2.138;2024-02-15T03:55:33;1.00;;;0.25;;
44824;SDS011;30542;47.928;2.138;2024-02-15T04:00:35;0.55;;;0.30;;
44824;SDS011;30542;47.928;2.138;2024-02-15T04:05:35;0.87;;;0.30;;
44824;SDS011;30542;47.928;2.138;2024-02-15T04:10:36;0.50;;;0.30;;
44824;SDS011;30542;47.928;2.138;2024-02-15T04:15:36;0.60;;;0.20;;
44824;SDS011;30542;47.928;2.138;2024-02-15T04:20:37;1.02;;;0.40;;
44824;SDS011;30542;47.928;2.138;2024-02-15T04:25:37;0.35;;;0.30;;
44824;SDS011;30542;47.928;2.138;2024-02-15T04:30:38;0.70;;;0.30;;
44824;SDS011;30542;47.928;2.138;2024-02-15T04:35:40;0.50;;;0.30;;
44824;SDS011;30542;47.928;2.138;2024-02-15T04:40:41;0.63;;;0.40;;
44824;SDS011;30542;47.928;2.138;2024-02-15T04:45:41;0.80;;;0.35;;
44824;SDS011;30542;47.928;2.138;2024-02-15T04:50:42;1.95;;;0.30;;
44824;SDS011;30542;47.928;2.138;2024-02-15T04:55:43;0.77;;;0.30;;
44824;SDS011;30542;47.928;2.138;2024-02-15T05:00:43;0.55;;;0.20;;
44824;SDS011;30542;47.928;2.138;2024-02-15T05:05:44;0.52;;;0.30;;
44824;SDS011;30542;47.928;2.138;2024-02-15T05:10:44;1.08;;;0.30;;
44824;SDS011;30542;47.928;2.138;2024-02-15T05:15:45;0.40;;;0.30;;
44824;SDS011;30542;47.928;2.138;2024-02-15T05:20:46;1.15;;;0.40;;
44824;SDS011;30542;47.928;2.138;2024-02-15T05:25:46;0.50;;;0.40;;
44824;SDS011;30542;47.928;2.138;2024-02-15T05:30:46;0.60;;;0.20;;
44824;SDS011;30542;47.928;2.138;2024-02-15T05:35:47;0.45;;;0.20;;
44824;SDS011;30542;47.928;2.138;2024-02-15T05:40:49;0.43;;;0.20;;
44824;SDS011;30542;47.928;2.138;2024-02-15T05:45:50;0.73;;;0.20;;
44824;SDS011;30542;47.928;2.138;2024-02-15T05:50:52;1.02;;;0.30;;
44824;SDS011;30542;47.928;2.138;2024-02-15T05:55:54;0.57;;;0.20;;
44824;SDS011;30542;47.928;2.138;2024-02-15T06:00:55;0.90;;;0.32;;
44824;SDS011;30542;47.928;2.138;2024-02-15T06:06:01;0.80;;;0.30;;
44824;SDS011;30542;47.928;2.138;2024-02-15T06:11:02;0.40;;;0.20;;
44824;SDS011;30542;47.928;2.138;2024-02-15T06:16:05;0.40;;;0.30;;
44824;SDS011;30542;47.928;2.138;2024-02-15T06:21:09;1.10;;;0.50;;
44824;SDS011;30542;47.928;2.138;2024-02-15T06:26:09;0.70;;;0.30;;
44824;SDS011;30542;47.928;2.138;2024-02-15T06:31:11;1.35;;;0.30;;
44824;SDS011;30542;47.928;2.138;2024-02-15T06:36:30;0.88;;;0.22;;
44824;SDS011;30542;47.928;2.138;2024-02-15T06:41:49;1.75;;;0.30;;
44824;SDS011;30542;47.928;2.138;2024-02-15T06:46:49;0.93;;;0.60;;
44824;SDS011;30542;47.928;2.138;2024-02-15T06:51:51;0.60;;;0.40;;
44824;SDS011;30542;47.928;2.138;2024-02-15T06:56:51;1.15;;;0.47;;
44824;SDS011;30542;47.928;2.138;2024-02-15T07:01:54;4.07;;;1.00;;
44824;SDS011;30542;47.928;2.138;2024-02-15T07:06:55;10.38;;;1.83;;
44824;SDS011;30542;47.928;2.138;2024-02-15T07:11:56;14.93;;;4.18;;
44824;SDS011;30542;47.928;2.138;2024-02-15T07:16:58;9.27;;;2.75;;
44824;SDS011;30542;47.928;2.138;2024-02-15T07:21:58;8.45;;;3.15;;
44824;SDS011;30542;47.928;2.138;2024-02-15T07:26:58;8.00;;;2.60;;
44824;SDS011;30542;47.928;2.138;2024-02-15T07:32:02;13.10;;;2.67;;
44824;SDS011;30542;47.928;2.138;2024-02-15T07:37:04;11.15;;;2.85;;
44824;SDS011;30542;47.928;2.138;2024-02-15T07:42:05;7.65;;;1.88;;
44824;SDS011;30542;47.928;2.138;2024-02-15T07:47:06;6.95;;;2.33;;
44824;SDS011;30542;47.928;2.138;2024-02-15T07:52:07;8.70;;;1.85;;
44824;SDS011;30542;47.928;2.138;2024-02-15T07:57:08;8.63;;;2.28;;
44824;SDS011;30542;47.928;2.138;2024-02-15T08:02:09;6.70;;;1.75;;
44824;SDS011;30542;47.928;2.138;2024-02-15T08:07:09;6.30;;;2.10;;
44824;SDS011;30542;47.928;2.138;2024-02-15T08:12:10;4.63;;;1.92;;
44824;SDS011;30542;47.928;2.138;2024-02-15T08:17:11;8.30;;;2.03;;
44824;SDS011;30542;47.928;2.138;2024-02-15T08:22:12;7.22;;;1.90;;
44824;SDS011;30542;47.928;2.138;2024-02-15T08:27:12;7.57;;;2.10;;
44824;SDS011;30542;47.928;2.138;2024-02-15T08:32:13;9.10;;;2.80;;
44824;SDS011;30542;47.928;2.138;2024-02-15T08:37:14;5.65;;;2.45;;
44824;SDS011;30542;47.928;2.138;2024-02-15T08:42:15;6.70;;;2.15;;
44824;SDS011;30542;47.928;2.138;2024-02-15T08:47:15;8.32;;;2.30;;
44824;SDS011;30542;47.928;2.138;2024-02-15T08:52:15;10.03;;;2.33;;
44824;SDS011;30542;47.928;2.138;2024-02-15T08:57:18;7.65;;;2.03;;
44824;SDS011;30542;47.928;2.138;2024-02-15T09:02:19;7.15;;;2.08;;
44824;SDS011;30542;47.928;2.138;2024-02-15T09:07:19;5.13;;;1.83;;
44824;SDS011;30542;47.928;2.138;2024-02-15T09:12:21;5.95;;;1.80;;
44824;SDS011;30542;47.928;2.138;2024-02-15T09:17:22;5.90;;;1.77;;
44824;SDS011;30542;47.928;2.138;2024-02-15T09:22:23;5.05;;;1.90;;
44824;SDS011;30542;47.928;2.138;2024-02-15T09:27:23;5.17;;;1.37;;
44824;SDS011;30542;47.928;2.138;2024-02-15T09:32:23;3.77;;;1.40;;
44824;SDS011;30542;47.928;2.138;2024-02-15T09:37:24;4.93;;;1.73;;
44824;SDS011;30542;47.928;2.138;2024-02-15T09:42:26;4.05;;;1.60;;
44824;SDS011;30542;47.928;2.138;2024-02-15T09:47:26;3.37;;;1.40;;
44824;SDS011;30542;47.928;2.138;2024-02-15T09:52:34;3.80;;;1.50;;
44824;SDS011;30542;47.928;2.138;2024-02-15T09:57:36;8.77;;;4.05;;
44824;SDS011;30542;47.928;2.138;2024-02-15T10:02:36;9.68;;;4.55;;
44824;SDS011;30542;47.928;2.138;2024-02-15T10:07:41;11.73;;;5.75;;
44824;SDS011;30542;47.928;2.138;2024-02-15T10:12:45;9.07;;;6.80;;
44824;SDS011;30542;47.928;2.138;2024-02-15T10:17:56;9.95;;;7.10;;
44824;SDS011;30542;47.928;2.138;2024-02-15T10:28:02;10.50;;;5.82;;
44824;SDS011;30542;47.928;2.138;2024-02-15T10:33:03;7.25;;;4.95;;
44824;SDS011;30542;47.928;2.138;2024-02-15T10:38:10;9.32;;;4.55;;
44824;SDS011;30542;47.928;2.138;2024-02-15T10:43:13;7.97;;;4.28;;
44824;SDS011;30542;47.928;2.138;2024-02-15T10:48:17;9.05;;;4.97;;
44824;SDS011;30542;47.928;2.138;2024-02-15T10:53:21;8.43;;;4.82;;
44824;SDS011;30542;47.928;2.138;2024-02-15T10:58:26;8.55;;;4.95;;
44824;SDS011;30542;47.928;2.138;2024-02-15T11:03:36;8.07;;;4.57;;
44824;SDS011;30542;47.928;2.138;2024-02-15T11:08:48;6.57;;;3.80;;
44824;SDS011;30542;47.928;2.138;2024-02-15T11:13:49;6.20;;;3.20;;
44824;SDS011;30542;47.928;2.138;2024-02-15T11:18:49;5.53;;;3.63;;
44824;SDS011;30542;47.928;2.138;2024-02-15T11:23:51;4.80;;;3.22;;
44824;SDS011;30542;47.928;2.138;2024-02-15T11:28:51;5.75;;;3.58;;
44824;SDS011;30542;47.928;2.138;2024-02-15T11:33:54;7.28;;;3.42;;
44824;SDS011;30542;47.928;2.138;2024-02-15T11:38:54;5.25;;;3.22;;
44824;SDS011;30542;47.928;2.138;2024-02-15T11:43:56;4.65;;;2.97;;
44824;SDS011;30542;47.928;2.138;2024-02-15T11:48:58;7.85;;;3.05;;
44824;SDS011;30542;47.928;2.138;2024-02-15T11:54:03;5.88;;;3.15;;
44824;SDS011;30542;47.928;2.138;2024-02-15T11:59:05;6.25;;;3.20;;
44824;SDS011;30542;47.928;2.138;2024-02-15T12:04:12;4.75;;;2.30;;
44824;SDS011;30542;47.928;2.138;2024-02-15T12:09:31;7.80;;;3.10;;
44824;SDS011;30542;47.928;2.138;2024-02-15T12:14:50;4.13;;;2.75;;
44824;SDS011;30542;47.928;2.138;2024-02-15T12:20:16;4.95;;;2.25;;
44824;SDS011;30542;47.928;2.138;2024-02-15T12:25:16;6.05;;;2.75;;
44824;SDS011;30542;47.928;2.138;2024-02-15T12:30:21;5.88;;;1.88;;
44824;SDS011;30542;47.928;2.138;2024-02-15T12:35:25;4.82;;;2.50;;
44824;SDS011;30542;47.928;2.138;2024-02-15T12:40:30;5.22;;;1.90;;
44824;SDS011;30542;47.928;2.138;2024-02-15T12:45:32;4.18;;;1.92;;
44824;SDS011;30542;47.928;2.138;2024-02-15T12:50:36;4.80;;;2.10;;
44824;SDS011;30542;47.928;2.138;2024-02-15T12:55:37;3.10;;;1.97;;
44824;SDS011;30542;47.928;2.138;2024-02-15T13:00:39;4.55;;;2.20;;
44824;SDS011;30542;47.928;2.138;2024-02-15T13:05:40;3.10;;;1.67;;
44824;SDS011;30542;47.928;2.138;2024-02-15T13:10:40;3.17;;;1.50;;
44824;SDS011;30542;47.928;2.138;2024-02-15T13:15:40;3.50;;;1.63;;
44824;SDS011;30542;47.928;2.138;2024-02-15T13:20:41;2.63;;;1.25;;
44824;SDS011;30542;47.928;2.138;2024-02-15T13:25:42;4.47;;;1.50;;
44824;SDS011;30542;47.928;2.138;2024-02-15T13:30:43;3.13;;;1.40;;
44824;SDS011;30542;47.928;2.138;2024-02-15T13:35:45;2.13;;;1.20;;
44824;SDS011;30542;47.928;2.138;2024-02-15T13:40:45;4.03;;;2.17;;
44824;SDS011;30542;47.928;2.138;2024-02-15T13:45:49;2.95;;;1.10;;
44824;SDS011;30542;47.928;2.138;2024-02-15T13:50:52;4.07;;;1.50;;
44824;SDS011;30542;47.928;2.138;2024-02-15T13:55:55;3.40;;;1.23;;
44824;SDS011;30542;47.928;2.138;2024-02-15T14:00:55;4.90;;;1.55;;
44824;SDS011;30542;47.928;2.138;2024-02-15T14:05:57;3.58;;;1.30;;
44824;SDS011;30542;47.928;2.138;2024-02-15T14:10:57;4.43;;;0.93;;
44824;SDS011;30542;47.928;2.138;2024-02-15T14:15:58;1.30;;;1.20;;
44824;SDS011;30542;47.928;2.138;2024-02-15T14:20:58;2.13;;;1.30;;
44824;SDS011;30542;47.928;2.138;2024-02-15T14:26:00;2.17;;;0.93;;
44824;SDS011;30542;47.928;2.138;2024-02-15T14:31:02;3.13;;;1.20;;
44824;SDS011;30542;47.928;2.138;2024-02-15T14:36:21;2.58;;;1.00;;
44824;SDS011;30542;47.928;2.138;2024-02-15T14:41:21;2.70;;;1.13;;
44824;SDS011;30542;47.928;2.138;2024-02-15T14:46:23;3.28;;;0.77;;
44824;SDS011;30542;47.928;2.138;2024-02-15T14:51:24;2.78;;;1.10;;
44824;SDS011;30542;47.928;2.138;2024-02-15T14:56:24;1.52;;;1.00;;
44824;SDS011;30542;47.928;2.138;2024-02-15T15:01:24;1.20;;;0.85;;
44824;SDS011;30542;47.928;2.138;2024-02-15T15:06:25;2.35;;;0.90;;
44824;SDS011;30542;47.928;2.138;2024-02-15T15:11:44;2.38;;;0.90;;
44824;SDS011;30542;47.928;2.138;2024-02-15T15:17:03;1.52;;;0.90;;
44824;SDS011;30542;47.928;2.138;2024-02-15T15:22:04;1.63;;;1.00;;
44824;SDS011;30542;47.928;2.138;2024-02-15T15:27:07;2.35;;;1.27;;
44824;SDS011;30542;47.928;2.138;2024-02-15T15:32:08;3.33;;;1.05;;
44824;SDS011;30542;47.928;2.138;2024-02-15T15:37:08;1.98;;;0.90;;
44824;SDS011;30542;47.928;2.138;2024-02-15T15:42:08;3.73;;;0.93;;
44824;SDS011;30542;47.928;2.138;2024-02-15T15:47:09;2.22;;;1.65;;
44824;SDS011;30542;47.928;2.138;2024-02-15T15:52:09;2.35;;;1.10;;
44824;SDS011;30542;47.928;2.138;2024-02-15T15:57:11;2.33;;;1.20;;
44824;SDS011;30542;47.928;2.138;2024-02-15T16:02:11;2.05;;;1.25;;
44824;SDS011;30542;47.928;2.138;2024-02-15T16:07:12;2.70;;;1.08;;
44824;SDS011;30542;47.928;2.138;2024-02-15T16:12:14;2.10;;;1.73;;
44824;SDS011;30542;47.928;2.138;2024-02-15T16:17:18;3.28;;;1.17;;
44824;SDS011;30542;47.928;2.138;2024-02-15T16:22:18;2.40;;;1.13;;
44824;SDS011;30542;47.928;2.138;2024-02-15T16:27:18;2.42;;;1.25;;
44824;SDS011;30542;47.928;2.138;2024-02-15T16:32:18;3.37;;;1.50;;
44824;SDS011;30542;47.928;2.138;2024-02-15T16:37:19;2.87;;;0.90;;
44824;SDS011;30542;47.928;2.138;2024-02-15T16:42:19;2.17;;;1.10;;
44824;SDS011;30542;47.928;2.138;2024-02-15T16:47:21;3.10;;;1.35;;
44824;SDS011;30542;47.928;2.138;2024-02-15T16:52:21;2.23;;;1.20;;
44824;SDS011;30542;47.928;2.138;2024-02-15T16:57:21;1.97;;;0.80;;
44824;SDS011;30542;47.928;2.138;2024-02-15T17:02:22;5.05;;;1.33;;
44824;SDS011;30542;47.928;2.138;2024-02-15T17:07:22;3.88;;;1.45;;
44824;SDS011;30542;47.928;2.138;2024-02-15T17:12:23;12.77;;;1.50;;
44824;SDS011;30542;47.928;2.138;2024-02-15T17:17:24;10.43;;;2.65;;
44824;SDS011;30542;47.928;2.138;2024-02-15T17:22:24;13.57;;;2.33;;
44824;SDS011;30542;47.928;2.138;2024-02-15T17:27:25;10.77;;;2.70;;
44824;SDS011;30542;47.928;2.138;2024-02-15T17:32:25;6.40;;;2.72;;
44824;SDS011;30542;47.928;2.138;2024-02-15T17:37:26;9.05;;;2.28;;
44824;SDS011;30542;47.928;2.138;2024-02-15T17:42:26;8.77;;;2.35;;
44824;SDS011;30542;47.928;2.138;2024-02-15T17:47:26;9.52;;;3.13;;
44824;SDS011;30542;47.928;2.138;2024-02-15T17:52:27;8.57;;;2.10;;
44824;SDS011;30542;47.928;2.138;2024-02-15T17:57:27;7.20;;;2.00;;
44824;SDS011;30542;47.928;2.138;2024-02-15T18:02:27;6.95;;;1.90;;
44824;SDS011;30542;47.928;2.138;2024-02-15T18:07:27;6.03;;;1.70;;
44824;SDS011;30542;47.928;2.138;2024-02-15T18:12:29;5.95;;;1.63;;
44824;SDS011;30542;47.928;2.138;2024-02-15T18:17:30;9.05;;;2.10;;
44824;SDS011;30542;47.928;2.138;2024-02-15T18:22:30;3.60;;;1.70;;
44824;SDS011;30542;47.928;2.138;2024-02-15T18:27:30;4.72;;;2.05;;
44824;SDS011;30542;47.928;2.138;2024-02-15T18:32:31;4.18;;;1.48;;
44824;SDS011;30542;47.928;2.138;2024-02-15T18:37:31;5.90;;;1.70;;
44824;SDS011;30542;47.928;2.138;2024-02-15T18:42:38;6.28;;;2.17;;
44824;SDS011;30542;47.928;2.138;2024-02-15T18:47:39;5.15;;;2.30;;
44824;SDS011;30542;47.928;2.138;2024-02-15T18:52:40;3.55;;;1.90;;
44824;SDS011;30542;47.928;2.138;2024-02-15T18:57:40;5.90;;;1.60;;
44824;SDS011;30542;47.928;2.138;2024-02-15T19:02:41;4.47;;;1.97;;
44824;SDS011;30542;47.928;2.138;2024-02-15T19:07:41;4.97;;;1.87;;
44824;SDS011;30542;47.928;2.138;2024-02-15T19:12:41;8.13;;;2.50;;
44824;SDS011;30542;47.928;2.138;2024-02-15T19:17:42;4.37;;;1.90;;
44824;SDS011;30542;47.928;2.138;2024-02-15T19:22:45;4.75;;;1.80;;
44824;SDS011;30542;47.928;2.138;2024-02-15T19:27:45;2.43;;;1.43;;
44824;SDS011;30542;47.928;2.138;2024-02-15T19:32:46;2.70;;;1.30;;
44824;SDS011;30542;47.928;2.138;2024-02-15T19:37:47;6.95;;;2.45;;
44824;SDS011;30542;47.928;2.138;2024-02-15T19:42:48;5.47;;;1.60;;
44824;SDS011;30542;47.928;2.138;2024-02-15T19:47:51;3.35;;;1.33;;
44824;SDS011;30542;47.928;2.138;2024-02-15T19:52:55;5.22;;;1.30;;
44824;SDS011;30542;47.928;2.138;2024-02-15T19:57:57;4.70;;;1.17;;
44824;SDS011;30542;47.928;2.138;2024-02-15T20:02:58;2.58;;;1.40;;
44824;SDS011;30542;47.928;2.138;2024-02-15T20:07:58;2.25;;;1.52;;
44824;SDS011;30542;47.928;2.138;2024-02-15T20:12:59;3.40;;;1.30;;
44824;SDS011;30542;47.928;2.138;2024-02-15T20:17:59;3.47;;;1.40;;
44824;SDS011;30542;47.928;2.138;2024-02-15T20:22:59;2.57;;;1.30;;
44824;SDS011;30542;47.928;2.138;2024-02-15T20:28:00;4.00;;;1.17;;
44824;SDS011;30542;47.928;2.138;2024-02-15T20:33:02;3.15;;;1.25;;
44824;SDS011;30542;47.928;2.138;2024-02-15T20:38:03;3.33;;;1.13;;
44824;SDS011;30542;47.928;2.138;2024-02-15T20:43:05;2.90;;;1.10;;
44824;SDS011;30542;47.928;2.138;2024-02-15T20:48:05;2.63;;;1.33;;
44824;SDS011;30542;47.928;2.138;2024-02-15T20:53:06;2.30;;;1.38;;
44824;SDS011;30542;47.928;2.138;2024-02-15T20:58:07;2.60;;;1.23;;
44824;SDS011;30542;47.928;2.138;2024-02-15T21:03:08;2.45;;;0.80;;
44824;SDS011;30542;47.928;2.138;2024-02-15T21:08:08;2.42;;;0.70;;
44824;SDS011;30542;47.928;2.138;2024-02-15T21:13:09;1.77;;;1.00;;
44824;SDS011;30542;47.928;2.138;2024-02-15T21:18:10;3.63;;;1.00;;
44824;SDS011;30542;47.928;2.138;2024-02-15T21:23:10;3.17;;;0.98;;
44824;SDS011;30542;47.928;2.138;2024-02-15T21:28:11;2.33;;;0.90;;
44824;SDS011;30542;47.928;2.138;2024-02-15T21:33:13;2.35;;;1.25;;
44824;SDS011;30542;47.928;2.138;2024-02-15T21:38:14;1.10;;;0.77;;
44824;SDS011;30542;47.928;2.138;2024-02-15T21:43:16;2.13;;;1.08;;
44824;SDS011;30542;47.928;2.138;2024-02-15T21:48:16;1.60;;;0.80;;
44824;SDS011;30542;47.928;2.138;2024-02-15T21:53:17;1.40;;;0.70;;
44824;SDS011;30542;47.928;2.138;2024-02-15T21:58:18;2.43;;;1.00;;
44824;SDS011;30542;47.928;2.138;2024-02-15T22:03:18;1.53;;;0.90;;
44824;SDS011;30542;47.928;2.138;2024-02-15T22:08:18;3.50;;;1.00;;
44824;SDS011;30542;47.928;2.138;2024-02-15T22:13:19;2.05;;;0.95;;
44824;SDS011;30542;47.928;2.138;2024-02-15T22:18:19;2.45;;;0.80;;
44824;SDS011;30542;47.928;2.138;2024-02-15T22:23:19;1.70;;;0.70;;
44824;SDS011;30542;47.928;2.138;2024-02-15T22:28:20;3.73;;;1.23;;
44824;SDS011;30542;47.928;2.138;2024-02-15T22:33:21;2.47;;;0.80;;
44824;SDS011;30542;47.928;2.138;2024-02-15T22:38:21;1.23;;;0.60;;
44824;SDS011;30542;47.928;2.138;2024-02-15T22:43:21;2.07;;;0.87;;
44824;SDS011;30542;47.928;2.138;2024-02-15T22:48:22;1.85;;;0.85;;
44824;SDS011;30542;47.928;2.138;2024-02-15T22:53:22;1.60;;;0.77;;
44824;SDS011;30542;47.928;2.138;2024-02-15T22:58:25;1.65;;;0.80;;
44824;SDS011;30542;47.928;2.138;2024-02-15T23:03:26;1.30;;;0.60;;
44824;SDS011;30542;47.928;2.138;2024-02-15T23:08:26;1.77;;;0.80;;
44824;SDS011;30542;47.928;2.138;2024-02-15T23:13:29;2.45;;;0.70;;
44824;SDS011;30542;47.928;2.138;2024-02-15T23:18:30;1.35;;;0.60;;
44824;SDS011;30542;47.928;2.138;2024-02-15T23:23:30;1.98;;;0.63;;
44824;SDS011;30542;47.928;2.138;2024-02-15T23:28:30;0.80;;;0.63;;
44824;SDS011;30542;47.928;2.138;2024-02-15T23:33:31;3.05;;;0.80;;
44824;SDS011;30542;47.928;2.138;2024-02-15T23:38:32;1.50;;;0.60;;
44824;SDS011;30542;47.928;2.138;2024-02-15T23:43:51;1.90;;;0.50;;
44824;SDS011;30542;47.928;2.138;2024-02-15T23:48:51;1.50;;;0.75;;
44824;SDS011;30542;47.928;2.138;2024-02-15T23:53:53;1.55;;;0.43;;
44824;SDS011;30542;47.928;2.138;2024-02-15T23:58:53;1.40;;;0.70;;
